Time;durP1;ratioP1;P1;durP2;ratioP2;P2;SDS_P1;SDS_P2;PMS_P1;PMS_P2;Temp;Humidity;BMP_temperature;BMP_pressure;BME280_temperature;BME280_humidity;BME280_pressure;Samples;Min_cycle;Max_cycle;Signal;HPM_P1;HPM_P2
2022/01/08 00:00:34;;;;;;;9.70;4.35;;;;;;;;;;5100794;28;20510;-72
2022/01/08 00:03:41;;;;;;;9.48;4.47;;;;;;;;;;5100843;28;20036;-72
2022/01/08 00:06:45;;;;;;;11.65;4.70;;;;;;;;;;5100896;28;20043;-72
2022/01/08 00:09:50;;;;;;;7.40;3.75;;;;;;;;;;5100579;28;20062;-72
2022/01/08 00:12:56;;;;;;;5.72;3.22;;;;;;;;;;5113431;28;20024;-72
2022/01/08 00:16:00;;;;;;;6.50;3.00;;;;;;;;;;5113255;28;20478;-71
2022/01/08 00:19:05;;;;;;;6.82;3.60;;;;;;;;;;5113147;28;20036;-72
2022/01/08 00:22:11;;;;;;;3.65;1.90;;;;;;;;;;5113579;28;20036;-71
2022/01/08 00:25:15;;;;;;;4.13;1.80;;;;;;;;;;5112985;28;20363;-72
2022/01/08 00:28:20;;;;;;;4.50;1.60;;;;;;;;;;5113230;28;20035;-72
2022/01/08 00:31:24;;;;;;;5.18;2.00;;;;;;;;;;5113454;28;20035;-72
2022/01/08 00:34:28;;;;;;;3.17;2.00;;;;;;;;;;5113272;28;20036;-73
2022/01/08 00:37:34;;;;;;;6.22;1.88;;;;;;;;;;5112472;28;20062;-73
2022/01/08 00:40:38;;;;;;;4.90;1.98;;;;;;;;;;5112986;28;20371;-73
2022/01/08 00:43:43;;;;;;;5.93;1.70;;;;;;;;;;5113228;28;20035;-73
2022/01/08 00:46:47;;;;;;;4.97;2.25;;;;;;;;;;5113352;28;20039;-72
2022/01/08 00:49:52;;;;;;;6.80;3.38;;;;;;;;;;5112943;28;20039;-73
2022/01/08 00:52:56;;;;;;;5.32;2.55;;;;;;;;;;5112663;28;20043;-73
2022/01/08 00:56:00;;;;;;;3.45;1.83;;;;;;;;;;5099631;28;20040;-72
2022/01/08 00:59:05;;;;;;;3.45;1.73;;;;;;;;;;5099939;28;20039;-72
2022/01/08 01:02:09;;;;;;;2.47;1.30;;;;;;;;;;5112378;28;20039;-73
2022/01/08 01:05:15;;;;;;;3.25;1.65;;;;;;;;;;5112201;28;20036;-71
2022/01/08 01:08:19;;;;;;;5.38;1.60;;;;;;;;;;5099943;28;20061;-72
2022/01/08 01:11:24;;;;;;;5.15;1.83;;;;;;;;;;5099993;28;20036;-71
2022/01/08 01:14:28;;;;;;;5.00;1.70;;;;;;;;;;5112493;28;20372;-72
2022/01/08 01:17:32;;;;;;;3.53;1.50;;;;;;;;;;5112365;28;20035;-72
2022/01/08 01:20:37;;;;;;;3.03;1.63;;;;;;;;;;5111904;28;20483;-72
2022/01/08 01:23:43;;;;;;;6.80;2.30;;;;;;;;;;5099646;28;20400;-72
2022/01/08 01:27:51;;;;;;;5.05;1.80;;;;;;;;;;5111909;28;20040;-73
2022/01/08 01:30:17;;;;;;;4.53;2.03;;;;;;;;;;5112297;28;20040;-72
2022/01/08 01:47:01;;;;;;;7.13;3.80;;;;;;;;;;5099593;28;20044;-72
2022/01/08 01:50:07;;;;;;;5.78;3.42;;;;;;;;;;5101943;28;20036;-73
2022/01/08 01:53:11;;;;;;;7.40;3.83;;;;;;;;;;5103415;28;20028;-73
2022/01/08 01:56:16;;;;;;;4.60;3.20;;;;;;;;;;5115822;28;20039;-73
2022/01/08 01:59:20;;;;;;;7.50;3.35;;;;;;;;;;5116203;28;20040;-73
2022/01/08 02:02:24;;;;;;;7.10;3.45;;;;;;;;;;5115650;28;20039;-73
2022/01/08 02:05:29;;;;;;;5.20;3.00;;;;;;;;;;5115655;28;20035;-73
2022/01/08 02:08:34;;;;;;;5.95;3.00;;;;;;;;;;5103348;28;20043;-73
2022/01/08 02:11:57;;;;;;;5.25;3.30;;;;;;;;;;5103161;28;20035;-73
2022/01/08 02:15:01;;;;;;;10.70;4.05;;;;;;;;;;5115531;28;20031;-73
2022/01/08 02:18:05;;;;;;;6.65;4.30;;;;;;;;;;5103159;28;20393;-73
2022/01/08 02:21:10;;;;;;;11.30;7.55;;;;;;;;;;5102650;28;20040;-71
2022/01/08 02:24:14;;;;;;;7.60;3.83;;;;;;;;;;5115531;28;20038;-71
2022/01/08 02:27:19;;;;;;;7.07;3.22;;;;;;;;;;5115275;28;20474;-72
2022/01/08 02:30:23;;;;;;;5.97;3.38;;;;;;;;;;5115075;28;20035;-73
2022/01/08 02:33:28;;;;;;;4.63;2.97;;;;;;;;;;5115541;28;20040;-73
2022/01/08 02:36:32;;;;;;;7.93;2.97;;;;;;;;;;5114975;28;20032;-73
2022/01/08 02:39:42;;;;;;;5.30;2.80;;;;;;;;;;5081940;28;20040;-73
2022/01/08 02:42:59;;;;;;;4.97;2.70;;;;;;;;;;5070747;28;20040;-73
2022/01/08 02:46:04;;;;;;;6.95;2.97;;;;;;;;;;5081510;28;20044;-74
2022/01/08 02:49:08;;;;;;;6.15;2.70;;;;;;;;;;5082161;28;20044;-73
2022/01/08 02:52:13;;;;;;;5.80;2.50;;;;;;;;;;5094385;28;20040;-74
2022/01/08 02:55:18;;;;;;;3.65;2.20;;;;;;;;;;5094358;28;20036;-73
2022/01/08 02:58:28;;;;;;;3.08;1.90;;;;;;;;;;5094551;28;20040;-73
2022/01/08 03:01:35;;;;;;;3.25;1.70;;;;;;;;;;5080806;28;20040;-73
2022/01/08 03:04:39;;;;;;;3.92;2.10;;;;;;;;;;5094096;28;20036;-73
2022/01/08 03:07:44;;;;;;;3.42;1.90;;;;;;;;;;5094369;28;20384;-73
2022/01/08 03:10:49;;;;;;;2.60;1.50;;;;;;;;;;5094232;28;20032;-73
2022/01/08 03:13:53;;;;;;;3.17;1.63;;;;;;;;;;5094425;28;20040;-73
2022/01/08 03:16:58;;;;;;;2.83;1.50;;;;;;;;;;5081465;28;20036;-73
2022/01/08 03:20:06;;;;;;;3.22;1.48;;;;;;;;;;5081686;28;20044;-73
2022/01/08 03:23:14;;;;;;;6.07;1.73;;;;;;;;;;5094191;28;20032;-73
2022/01/08 03:26:19;;;;;;;2.40;1.80;;;;;;;;;;5094088;28;20044;-72
2022/01/08 03:29:27;;;;;;;6.20;1.60;;;;;;;;;;5081423;28;20036;-73
2022/01/08 03:32:31;;;;;;;2.38;1.27;;;;;;;;;;5081263;28;20047;-73
2022/01/08 03:35:38;;;;;;;3.00;1.23;;;;;;;;;;5081322;28;20056;-73
2022/01/08 03:38:43;;;;;;;3.15;1.38;;;;;;;;;;5093445;28;20048;-73
2022/01/08 03:41:47;;;;;;;2.65;1.27;;;;;;;;;;5093523;28;20052;-73
2022/01/08 03:44:51;;;;;;;3.42;1.42;;;;;;;;;;5092798;28;20036;-73
2022/01/08 03:48:45;;;;;;;3.17;1.35;;;;;;;;;;5080447;28;20044;-73
2022/01/08 03:51:24;;;;;;;3.88;1.42;;;;;;;;;;5081305;28;20032;-73
2022/01/08 03:54:29;;;;;;;3.40;1.55;;;;;;;;;;5080387;28;20040;-73
2022/01/08 03:57:33;;;;;;;1.90;1.30;;;;;;;;;;5092665;28;20036;-73
2022/01/08 04:00:38;;;;;;;2.78;1.20;;;;;;;;;;5092465;28;20388;-73
2022/01/08 04:03:42;;;;;;;2.22;1.20;;;;;;;;;;5092682;28;20035;-73
2022/01/08 04:06:46;;;;;;;3.85;1.25;;;;;;;;;;5080065;28;20040;-73
2022/01/08 04:09:53;;;;;;;2.25;1.30;;;;;;;;;;5079569;28;20044;-73
2022/01/08 04:13:04;;;;;;;2.35;1.20;;;;;;;;;;5091269;28;20040;-73
2022/01/08 04:16:13;;;;;;;3.83;1.33;;;;;;;;;;5091963;28;20036;-73
2022/01/08 04:19:19;;;;;;;5.85;1.40;;;;;;;;;;5079804;28;20044;-73
2022/01/08 04:22:25;;;;;;;4.07;1.10;;;;;;;;;;5079659;28;20503;-73
2022/01/08 04:25:31;;;;;;;1.70;1.20;;;;;;;;;;5079731;28;20032;-73
2022/01/08 04:28:35;;;;;;;4.13;1.35;;;;;;;;;;5092092;28;20047;-73
2022/01/08 04:31:39;;;;;;;4.32;1.50;;;;;;;;;;5091819;28;20027;-73
2022/01/08 04:34:50;;;;;;;2.72;1.38;;;;;;;;;;5108789;27;20387;-73
2022/01/08 04:37:54;;;;;;;4.10;2.03;;;;;;;;;;5109220;28;20561;-72
2022/01/08 04:40:59;;;;;;;4.43;1.80;;;;;;;;;;5109052;28;20035;-73
2022/01/08 04:44:06;;;;;;;5.53;2.10;;;;;;;;;;5109801;28;20032;-72
2022/01/08 04:47:10;;;;;;;8.45;2.17;;;;;;;;;;5108613;28;20467;-72
2022/01/08 04:50:15;;;;;;;3.67;1.58;;;;;;;;;;5108584;28;20036;-73
2022/01/08 04:53:19;;;;;;;4.20;1.77;;;;;;;;;;5108348;28;20049;-72
2022/01/08 04:56:23;;;;;;;3.03;1.60;;;;;;;;;;5108445;28;20043;-72
2022/01/08 04:59:28;;;;;;;5.05;2.00;;;;;;;;;;5108791;28;20043;-73
2022/01/08 05:02:32;;;;;;;4.00;1.63;;;;;;;;;;5096010;28;20225;-72
2022/01/08 05:05:37;;;;;;;5.03;1.60;;;;;;;;;;5095737;28;20040;-73
2022/01/08 05:08:41;;;;;;;5.82;1.88;;;;;;;;;;5096267;28;20028;-72
2022/01/08 05:11:46;;;;;;;3.63;1.65;;;;;;;;;;5108620;28;20031;-73
2022/01/08 05:14:51;;;;;;;5.07;1.63;;;;;;;;;;5108252;28;20040;-72
2022/01/08 05:17:56;;;;;;;5.32;1.55;;;;;;;;;;5095979;28;20475;-72
2022/01/08 05:21:17;;;;;;;4.70;1.65;;;;;;;;;;5095957;28;20043;-72
2022/01/08 05:24:21;;;;;;;3.23;1.37;;;;;;;;;;5108431;28;20032;-72
2022/01/08 05:27:26;;;;;;;3.92;1.45;;;;;;;;;;5108178;28;20274;-72
2022/01/08 05:30:31;;;;;;;6.43;1.33;;;;;;;;;;5108035;28;20040;-72
2022/01/08 05:33:35;;;;;;;3.45;1.20;;;;;;;;;;5107402;28;20040;-72
2022/01/08 05:36:40;;;;;;;3.17;1.52;;;;;;;;;;5094945;28;20390;-72
2022/01/08 05:39:45;;;;;;;5.00;1.90;;;;;;;;;;5095193;28;20032;-72
2022/01/08 05:42:49;;;;;;;6.57;1.90;;;;;;;;;;5107710;28;20040;-72
2022/01/08 05:45:56;;;;;;;4.93;1.75;;;;;;;;;;5095616;28;20036;-72
2022/01/08 05:49:02;;;;;;;3.83;2.08;;;;;;;;;;5081379;28;20040;-72
2022/01/08 05:52:09;;;;;;;8.40;2.75;;;;;;;;;;5081254;28;20031;-72
2022/01/08 05:55:13;;;;;;;4.38;2.00;;;;;;;;;;5081102;28;20036;-72
2022/01/08 05:58:18;;;;;;;4.72;2.53;;;;;;;;;;5093686;28;20040;-72
2022/01/08 06:01:22;;;;;;;5.80;2.05;;;;;;;;;;5093519;28;20040;-72
2022/01/08 06:04:26;;;;;;;4.78;1.60;;;;;;;;;;5093792;28;20032;-72
2022/01/08 06:07:31;;;;;;;3.83;1.70;;;;;;;;;;5093334;28;20036;-72
2022/01/08 06:10:35;;;;;;;4.65;2.00;;;;;;;;;;5093597;28;20040;-72
2022/01/08 06:13:40;;;;;;;3.10;1.83;;;;;;;;;;5093257;28;20048;-72
2022/01/08 06:16:44;;;;;;;3.95;1.60;;;;;;;;;;5093400;28;20032;-72
2022/01/08 06:19:49;;;;;;;3.25;1.50;;;;;;;;;;5093165;28;20040;-72
2022/01/08 06:22:53;;;;;;;4.05;1.60;;;;;;;;;;5093284;28;20036;-72
2022/01/08 06:25:57;;;;;;;2.50;1.30;;;;;;;;;;5092861;28;20036;-72
2022/01/08 06:29:02;;;;;;;5.90;2.60;;;;;;;;;;5080786;28;20044;-72
2022/01/08 06:32:06;;;;;;;6.10;1.80;;;;;;;;;;5069066;28;20032;-73
2022/01/08 06:35:10;;;;;;;4.45;1.35;;;;;;;;;;5093172;28;20048;-73
2022/01/08 06:38:15;;;;;;;5.22;1.90;;;;;;;;;;5080387;28;20399;-72
2022/01/08 06:41:20;;;;;;;3.28;1.25;;;;;;;;;;5080265;28;20040;-72
2022/01/08 06:44:24;;;;;;;5.18;1.60;;;;;;;;;;5092887;28;20039;-73
2022/01/08 06:47:29;;;;;;;3.83;1.70;;;;;;;;;;5092401;28;20487;-73
2022/01/08 06:50:33;;;;;;;23.65;4.57;;;;;;;;;;5092530;28;20048;-73
2022/01/08 06:53:37;;;;;;;21.48;4.55;;;;;;;;;;5092404;28;20032;-73
2022/01/08 06:56:41;;;;;;;20.98;3.70;;;;;;;;;;5091801;28;20040;-73
2022/01/08 06:59:49;;;;;;;30.10;12.77;;;;;;;;;;5092778;28;20471;-73
2022/01/08 07:02:53;;;;;;;22.67;10.23;;;;;;;;;;5092676;28;20040;-73
2022/01/08 07:05:57;;;;;;;28.92;10.57;;;;;;;;;;5080008;28;20028;-73
2022/01/08 07:09:02;;;;;;;49.58;12.73;;;;;;;;;;5092621;28;20047;-75
2022/01/08 07:12:06;;;;;;;65.38;10.63;;;;;;;;;;5080051;28;20500;-75
2022/01/08 07:15:12;;;;;;;17.77;5.38;;;;;;;;;;5092287;28;20048;-75
2022/01/08 07:18:17;;;;;;;12.40;4.28;;;;;;;;;;5092243;28;20467;-72
2022/01/08 07:21:21;;;;;;;10.65;4.82;;;;;;;;;;5068069;28;20040;-71
2022/01/08 07:24:25;;;;;;;14.70;5.95;;;;;;;;;;5092203;28;20032;-73
2022/01/08 07:27:32;;;;;;;12.68;5.85;;;;;;;;;;5079490;28;20043;-69
2022/01/08 07:30:36;;;;;;;14.13;6.50;;;;;;;;;;5092035;28;20036;-69
2022/01/08 07:33:41;;;;;;;10.70;3.85;;;;;;;;;;5079100;28;20052;-70
2022/01/08 07:36:45;;;;;;;5.00;2.90;;;;;;;;;;5091954;28;20039;-71
2022/01/08 07:39:50;;;;;;;8.00;3.30;;;;;;;;;;5091820;28;20040;-70
2022/01/08 07:42:55;;;;;;;9.07;2.10;;;;;;;;;;5079312;28;20044;-71
2022/01/08 07:45:59;;;;;;;6.00;1.80;;;;;;;;;;5091576;28;20040;-70
2022/01/08 07:49:04;;;;;;;6.03;1.90;;;;;;;;;;5091693;28;20032;-70
2022/01/08 07:52:08;;;;;;;4.35;2.17;;;;;;;;;;5091365;28;20067;-70
2022/01/08 07:55:13;;;;;;;2.88;1.70;;;;;;;;;;5090948;28;20052;-71
2022/01/08 07:58:20;;;;;;;8.60;1.80;;;;;;;;;;5091726;28;20040;-70
2022/01/08 08:01:25;;;;;;;2.92;1.60;;;;;;;;;;5091664;28;20044;-72
2022/01/08 08:04:29;;;;;;;2.72;1.50;;;;;;;;;;5079213;28;20040;-72
2022/01/08 08:07:37;;;;;;;3.00;1.90;;;;;;;;;;5078545;28;20036;-71
2022/01/08 08:10:41;;;;;;;6.38;2.00;;;;;;;;;;5078927;28;20040;-73
2022/01/08 08:13:45;;;;;;;5.45;2.25;;;;;;;;;;5090823;28;20380;-73
2022/01/08 08:16:49;;;;;;;4.97;2.47;;;;;;;;;;5067286;28;20040;-71
2022/01/08 08:19:54;;;;;;;4.95;1.75;;;;;;;;;;5091170;28;20503;-72
2022/01/08 08:22:58;;;;;;;3.15;1.73;;;;;;;;;;5091184;28;20032;-72
2022/01/08 08:26:02;;;;;;;1.88;1.13;;;;;;;;;;5078370;28;20043;-73
2022/01/08 08:29:07;;;;;;;4.30;1.17;;;;;;;;;;5091280;28;20523;-72
2022/01/08 08:32:11;;;;;;;3.40;1.63;;;;;;;;;;5091108;28;20043;-72
2022/01/08 08:35:15;;;;;;;2.65;1.30;;;;;;;;;;5077801;28;20048;-72
2022/01/08 08:38:20;;;;;;;3.13;1.30;;;;;;;;;;5067103;28;20495;-73
2022/01/08 08:41:24;;;;;;;6.65;1.90;;;;;;;;;;5078084;28;20040;-71
2022/01/08 08:44:28;;;;;;;5.38;2.50;;;;;;;;;;5090429;28;20487;-75
2022/01/08 08:47:33;;;;;;;6.30;2.58;;;;;;;;;;5090520;28;20040;-71
2022/01/08 08:50:38;;;;;;;4.57;2.42;;;;;;;;;;5090584;28;20032;-72
2022/01/08 08:53:42;;;;;;;5.00;1.98;;;;;;;;;;5078225;28;20040;-73
2022/01/08 08:56:46;;;;;;;4.57;1.65;;;;;;;;;;5078284;28;20040;-71
2022/01/08 08:59:51;;;;;;;5.68;1.98;;;;;;;;;;5090386;28;20393;-70
2022/01/08 09:02:55;;;;;;;6.30;2.22;;;;;;;;;;5078159;28;20043;-70
2022/01/08 09:05:59;;;;;;;4.45;2.10;;;;;;;;;;5077947;28;20032;-70
2022/01/08 09:09:03;;;;;;;5.28;1.77;;;;;;;;;;5090699;28;20128;-68
2022/01/08 09:12:09;;;;;;;3.17;1.65;;;;;;;;;;5090511;28;20044;-72
2022/01/08 09:15:15;;;;;;;5.40;1.50;;;;;;;;;;5090175;28;20511;-69
2022/01/08 09:18:19;;;;;;;3.40;1.55;;;;;;;;;;5090643;28;20040;-70
2022/01/08 09:21:24;;;;;;;4.13;1.88;;;;;;;;;;5081275;28;20044;-76
2022/01/08 09:24:28;;;;;;;4.57;2.58;;;;;;;;;;5094006;28;20476;-72
2022/01/08 09:27:33;;;;;;;4.53;2.67;;;;;;;;;;5094596;28;20550;-74
2022/01/08 09:30:37;;;;;;;6.00;2.92;;;;;;;;;;5094093;28;20028;-72
2022/01/08 09:33:42;;;;;;;5.10;2.40;;;;;;;;;;5093973;28;20056;-73
2022/01/08 09:36:47;;;;;;;4.72;2.35;;;;;;;;;;5094239;28;20468;-71
2022/01/08 09:39:51;;;;;;;5.43;2.30;;;;;;;;;;5081507;28;20040;-70
2022/01/08 09:42:56;;;;;;;4.10;2.63;;;;;;;;;;5093969;28;20467;-70
2022/01/08 09:46:00;;;;;;;6.60;2.65;;;;;;;;;;5081006;28;20028;-70
2022/01/08 09:49:04;;;;;;;6.20;2.60;;;;;;;;;;5069874;28;20040;-77
2022/01/08 09:52:09;;;;;;;7.20;2.95;;;;;;;;;;5093795;28;20040;-76
2022/01/08 09:55:13;;;;;;;6.40;2.40;;;;;;;;;;5093429;28;20047;-76
2022/01/08 09:58:17;;;;;;;8.30;3.22;;;;;;;;;;5081520;28;20471;-72
2022/01/08 10:01:24;;;;;;;3.33;2.22;;;;;;;;;;5093776;28;20380;-75
2022/01/08 10:04:36;;;;;;;5.88;2.03;;;;;;;;;;5081329;28;20044;-71
2022/01/08 10:07:40;;;;;;;7.22;2.53;;;;;;;;;;5069402;28;20040;-70
2022/01/08 10:11:04;;;;;;;6.68;1.90;;;;;;;;;;5093600;28;20040;-71
2022/01/08 10:14:15;;;;;;;3.25;1.83;;;;;;;;;;5080816;28;20044;-71
2022/01/08 10:17:39;;;;;;;6.03;1.80;;;;;;;;;;5092684;28;20036;-71
2022/01/08 10:20:47;;;;;;;3.88;2.85;;;;;;;;;;5079014;28;20408;-71
2022/01/08 10:23:52;;;;;;;5.05;2.50;;;;;;;;;;5091267;28;20044;-72
2022/01/08 10:27:03;;;;;;;4.75;2.60;;;;;;;;;;5092063;28;20372;-74
2022/01/08 10:30:08;;;;;;;;;;;;;;;;;;5091707;28;20495;-74
2022/01/08 10:33:12;;;;;;;4.63;2.30;;;;;;;;;;5091560;28;19927;-75
2022/01/08 10:36:24;;;;;;;3.67;1.95;;;;;;;;;;5092411;28;20479;-75
2022/01/08 10:39:31;;;;;;;7.25;2.95;;;;;;;;;;5067989;28;20032;-75
2022/01/08 10:42:38;;;;;;;6.32;2.60;;;;;;;;;;5079938;28;20052;-75
2022/01/08 10:45:42;;;;;;;7.68;2.72;;;;;;;;;;5080282;28;20036;-75
2022/01/08 10:48:48;;;;;;;6.97;3.08;;;;;;;;;;5092873;28;20040;-75
2022/01/08 10:51:56;;;;;;;4.90;2.72;;;;;;;;;;5080032;28;20039;-75
2022/01/08 10:55:01;;;;;;;5.28;2.40;;;;;;;;;;5079688;28;20048;-74
2022/01/08 10:58:05;;;;;;;3.03;2.15;;;;;;;;;;5092440;28;20041;-74
2022/01/08 11:01:10;;;;;;;7.50;2.88;;;;;;;;;;5092152;28;20032;-74
2022/01/08 11:04:16;;;;;;;9.27;2.47;;;;;;;;;;5079523;28;20044;-74
2022/01/08 11:07:22;;;;;;;6.05;2.60;;;;;;;;;;5079620;28;20040;-75
2022/01/08 11:10:27;;;;;;;7.53;2.70;;;;;;;;;;5079620;28;20044;-74
2022/01/08 11:13:31;;;;;;;9.48;3.28;;;;;;;;;;5079501;28;20113;-75
2022/01/08 11:16:35;;;;;;;9.25;2.20;;;;;;;;;;5079434;28;20040;-74
2022/01/08 11:19:42;;;;;;;7.35;2.63;;;;;;;;;;5092073;28;20032;-74
2022/01/08 11:22:48;;;;;;;4.43;2.13;;;;;;;;;;5092135;28;20467;-75
2022/01/08 11:25:55;;;;;;;5.00;2.42;;;;;;;;;;5079222;28;20412;-74
2022/01/08 11:29:00;;;;;;;6.10;2.60;;;;;;;;;;5079412;28;20044;-74
2022/01/08 11:32:05;;;;;;;7.47;2.80;;;;;;;;;;5092116;28;20044;-74
2022/01/08 11:35:11;;;;;;;5.75;2.63;;;;;;;;;;5091561;28;20040;-75
2022/01/08 11:38:16;;;;;;;5.20;2.33;;;;;;;;;;5091611;28;20028;-74
2022/01/08 11:41:21;;;;;;;4.68;2.78;;;;;;;;;;5079175;28;20480;-74
2022/01/08 11:44:26;;;;;;;7.47;2.88;;;;;;;;;;5091421;28;20525;-74
2022/01/08 11:47:31;;;;;;;13.75;4.50;;;;;;;;;;5079441;28;20032;-74
2022/01/08 11:50:35;;;;;;;6.05;2.15;;;;;;;;;;5091367;28;20032;-74
2022/01/08 11:53:46;;;;;;;14.70;3.55;;;;;;;;;;5078750;28;20051;-75
2022/01/08 11:56:50;;;;;;;3.38;2.15;;;;;;;;;;5091091;28;20400;-74
2022/01/08 11:59:59;;;;;;;3.85;2.17;;;;;;;;;;5079222;28;20275;-75
2022/01/08 12:03:19;;;;;;;4.93;2.35;;;;;;;;;;5078333;28;20048;-75
2022/01/08 12:06:30;;;;;;;4.85;2.65;;;;;;;;;;5091270;28;20361;-75
2022/01/08 12:09:39;;;;;;;3.30;2.38;;;;;;;;;;5091291;28;20040;-73
2022/01/08 12:12:43;;;;;;;5.28;2.28;;;;;;;;;;5078938;28;20044;-75
2022/01/08 12:15:50;;;;;;;7.07;2.75;;;;;;;;;;5078650;28;20044;-75
2022/01/08 12:18:55;;;;;;;7.13;2.50;;;;;;;;;;5078919;28;20036;-72
2022/01/08 12:22:00;;;;;;;9.85;2.65;;;;;;;;;;5078886;28;20048;-72
2022/01/08 12:25:05;;;;;;;6.20;2.72;;;;;;;;;;5091498;28;20032;-72
2022/01/08 12:28:29;;;;;;;3.33;2.28;;;;;;;;;;5091470;28;20475;-73
2022/01/08 12:34:48;;;;;;;5.75;3.20;;;;;;;;;;5090800;28;20503;-74
2022/01/08 12:37:54;;;;;;;5.10;2.85;;;;;;;;;;5078350;28;20036;-76
2022/01/08 12:40:59;;;;;;;5.40;2.47;;;;;;;;;;5090848;28;20036;-75
2022/01/08 12:44:22;;;;;;;6.55;2.50;;;;;;;;;;5055779;28;20487;-75
2022/01/08 12:47:42;;;;;;;4.30;2.90;;;;;;;;;;5090783;28;20384;-76
2022/01/08 12:50:46;;;;;;;4.88;3.00;;;;;;;;;;5078439;28;20377;-74
2022/01/08 12:54:05;;;;;;;8.02;4.32;;;;;;;;;;5078404;28;20047;-74
2022/01/08 12:57:09;;;;;;;7.20;3.83;;;;;;;;;;5095175;28;20043;-75
2022/01/08 13:00:13;;;;;;;8.85;4.80;;;;;;;;;;5082636;28;20048;-75
2022/01/08 13:03:21;;;;;;;7.50;4.63;;;;;;;;;;5094824;28;20036;-75
2022/01/08 13:06:25;;;;;;;5.35;2.83;;;;;;;;;;5070388;28;20040;-76
2022/01/08 13:09:29;;;;;;;5.72;3.50;;;;;;;;;;5094807;28;20028;-75
2022/01/08 13:12:34;;;;;;;6.93;3.50;;;;;;;;;;5094800;28;20047;-75
2022/01/08 13:15:38;;;;;;;6.47;3.15;;;;;;;;;;5070105;28;20048;-76
2022/01/08 13:18:47;;;;;;;4.30;2.90;;;;;;;;;;5082263;28;20032;-76
2022/01/08 13:21:53;;;;;;;4.47;2.65;;;;;;;;;;5094874;28;20040;-76
2022/01/08 13:24:58;;;;;;;5.22;3.55;;;;;;;;;;5094361;28;20044;-73
2022/01/08 13:28:02;;;;;;;6.10;3.03;;;;;;;;;;5094377;28;20476;-75
2022/01/08 13:31:06;;;;;;;5.22;4.10;;;;;;;;;;5059055;28;20028;-75
2022/01/08 13:34:11;;;;;;;9.27;5.05;;;;;;;;;;5070219;28;20052;-76
2022/01/08 13:37:27;;;;;;;10.68;5.10;;;;;;;;;;5081702;28;20028;-73
2022/01/08 13:40:31;;;;;;;9.52;4.80;;;;;;;;;;5070344;28;20036;-73
2022/01/08 13:43:54;;;;;;;17.67;8.18;;;;;;;;;;5094423;28;20032;-73
2022/01/08 13:46:58;;;;;;;12.00;6.00;;;;;;;;;;5081736;28;20044;-73
2022/01/08 13:50:20;;;;;;;7.57;4.57;;;;;;;;;;5081854;28;20044;-74
2022/01/08 13:53:25;;;;;;;7.22;4.07;;;;;;;;;;5081691;28;20048;-73
2022/01/08 13:56:30;;;;;;;6.43;3.60;;;;;;;;;;5093795;28;20048;-73
2022/01/08 13:59:34;;;;;;;5.88;3.30;;;;;;;;;;5094001;28;20036;-73
2022/01/08 14:02:38;;;;;;;6.53;3.55;;;;;;;;;;5094017;28;20047;-73
2022/01/08 14:05:43;;;;;;;8.63;3.70;;;;;;;;;;5080717;28;20040;-70
2022/01/08 14:08:53;;;;;;;9.05;3.78;;;;;;;;;;5069889;28;20044;-71
2022/01/08 14:12:13;;;;;;;10.27;3.85;;;;;;;;;;5081253;28;20040;-76
2022/01/08 14:15:25;;;;;;;6.53;3.53;;;;;;;;;;5080863;28;20052;-73
2022/01/08 14:18:30;;;;;;;6.43;3.40;;;;;;;;;;5080549;28;20036;-73
2022/01/08 14:21:35;;;;;;;8.38;4.00;;;;;;;;;;5080543;28;20036;-73
2022/01/08 14:24:41;;;;;;;10.02;3.80;;;;;;;;;;5080701;28;20032;-74
2022/01/08 14:27:45;;;;;;;8.13;4.00;;;;;;;;;;5080830;28;20043;-74
2022/01/08 14:30:50;;;;;;;6.32;3.38;;;;;;;;;;5093442;28;20365;-74
2022/01/08 14:34:00;;;;;;;4.80;3.00;;;;;;;;;;5080481;28;20051;-74
2022/01/08 14:37:08;;;;;;;8.15;3.97;;;;;;;;;;5093109;28;20392;-74
2022/01/08 14:40:15;;;;;;;10.32;4.43;;;;;;;;;;5068927;28;20040;-74
2022/01/08 14:43:23;;;;;;;13.73;7.25;;;;;;;;;;5093164;28;20381;-73
2022/01/08 14:46:28;;;;;;;6.28;3.95;;;;;;;;;;5080176;28;20484;-74
2022/01/08 14:49:33;;;;;;;8.77;4.90;;;;;;;;;;5080314;28;20036;-73
2022/01/08 14:52:41;;;;;;;11.43;6.13;;;;;;;;;;5092875;28;20044;-73
2022/01/08 14:55:46;;;;;;;4.30;3.55;;;;;;;;;;5092483;28;20048;-74
2022/01/08 14:58:51;;;;;;;9.30;6.40;;;;;;;;;;5080305;28;20044;-73
2022/01/08 15:01:56;;;;;;;9.48;4.00;;;;;;;;;;5079072;28;20044;-74
2022/01/08 15:05:00;;;;;;;6.95;4.30;;;;;;;;;;5068157;28;20044;-74
2022/01/08 15:08:05;;;;;;;6.82;3.88;;;;;;;;;;5078142;28;20495;-74
2022/01/08 15:11:11;;;;;;;8.50;3.88;;;;;;;;;;5092277;28;20040;-73
2022/01/08 15:14:15;;;;;;;8.75;5.13;;;;;;;;;;5092234;28;20044;-73
2022/01/08 15:17:20;;;;;;;301.20;90.20;;;;;;;;;;5078815;28;20052;-74
2022/01/08 15:20:24;;;;;;;53.28;24.77;;;;;;;;;;5092331;28;20106;-74
2022/01/08 15:23:28;;;;;;;16.70;9.77;;;;;;;;;;5090840;28;20055;-74
2022/01/08 15:26:33;;;;;;;11.70;6.53;;;;;;;;;;5067979;28;20048;-75
2022/01/08 15:29:37;;;;;;;14.93;6.82;;;;;;;;;;5079592;28;20039;-72
2022/01/08 15:32:42;;;;;;;17.30;9.45;;;;;;;;;;5091662;28;20040;-74
2022/01/08 15:35:46;;;;;;;12.00;6.15;;;;;;;;;;5091629;28;20372;-72
2022/01/08 15:38:50;;;;;;;13.25;6.55;;;;;;;;;;5079335;28;20028;-74
2022/01/08 15:41:54;;;;;;;10.85;6.85;;;;;;;;;;5067710;28;20036;-75
2022/01/08 15:44:59;;;;;;;12.02;6.32;;;;;;;;;;5091623;28;20032;-75
2022/01/08 15:48:04;;;;;;;11.38;5.75;;;;;;;;;;5078897;28;20040;-75
2022/01/08 15:51:08;;;;;;;9.68;5.70;;;;;;;;;;5091640;28;20040;-74
2022/01/08 15:54:13;;;;;;;21.08;11.10;;;;;;;;;;5091514;28;20059;-75
2022/01/08 15:57:17;;;;;;;12.75;6.70;;;;;;;;;;5091507;28;20051;-74
2022/01/08 16:00:21;;;;;;;9.95;5.85;;;;;;;;;;5078988;28;20036;-74
2022/01/08 16:03:26;;;;;;;9.73;5.40;;;;;;;;;;5091077;28;20131;-74
2022/01/08 16:06:30;;;;;;;10.68;6.30;;;;;;;;;;5091169;28;20040;-73
2022/01/08 16:09:34;;;;;;;13.23;7.80;;;;;;;;;;5091406;28;20044;-75
2022/01/08 16:12:39;;;;;;;12.60;7.40;;;;;;;;;;5078412;28;20637;-74
2022/01/08 16:15:43;;;;;;;10.65;6.47;;;;;;;;;;5091033;28;20048;-72
2022/01/08 16:18:48;;;;;;;21.48;8.85;;;;;;;;;;5079871;28;20028;-74
2022/01/08 16:21:53;;;;;;;25.65;16.63;;;;;;;;;;5078702;28;20377;-74
2022/01/08 16:24:57;;;;;;;21.48;12.27;;;;;;;;;;5078683;28;20031;-74
2022/01/08 16:28:01;;;;;;;25.42;13.65;;;;;;;;;;5091299;28;20039;-73
2022/01/08 16:31:05;;;;;;;38.88;24.00;;;;;;;;;;5066976;28;20047;-74
2022/01/08 16:34:10;;;;;;;39.72;19.98;;;;;;;;;;5078027;28;20059;-73
2022/01/08 16:37:15;;;;;;;36.30;19.80;;;;;;;;;;5078725;28;20051;-73
2022/01/08 16:40:19;;;;;;;33.78;18.98;;;;;;;;;;5090378;28;20486;-74
2022/01/08 16:43:23;;;;;;;26.00;15.40;;;;;;;;;;5090769;28;20047;-72
2022/01/08 16:46:27;;;;;;;23.52;14.90;;;;;;;;;;5066725;28;20047;-72
2022/01/08 16:49:32;;;;;;;21.95;12.95;;;;;;;;;;5090919;28;20047;-73
2022/01/08 16:52:36;;;;;;;16.73;10.43;;;;;;;;;;5078184;28;20395;-72
2022/01/08 16:55:41;;;;;;;19.25;10.93;;;;;;;;;;5090812;28;20498;-73
2022/01/08 16:58:45;;;;;;;25.45;12.38;;;;;;;;;;5090836;28;20043;-72
2022/01/08 17:01:49;;;;;;;27.27;11.73;;;;;;;;;;5090513;28;20051;-73
2022/01/08 17:04:54;;;;;;;26.33;13.40;;;;;;;;;;5090651;28;20043;-73
2022/01/08 17:07:58;;;;;;;28.50;13.60;;;;;;;;;;5089502;28;20073;-72
2022/01/08 17:11:02;;;;;;;27.20;15.65;;;;;;;;;;5077543;28;20044;-72
2022/01/08 17:14:07;;;;;;;46.63;28.42;;;;;;;;;;5089630;28;20039;-73
2022/01/08 17:17:11;;;;;;;49.97;27.83;;;;;;;;;;5077946;28;20055;-73
2022/01/08 17:20:15;;;;;;;46.65;30.55;;;;;;;;;;5077617;28;20047;-73
2022/01/08 17:23:21;;;;;;;47.78;28.63;;;;;;;;;;5089899;28;20047;-73
2022/01/08 17:26:27;;;;;;;50.45;30.38;;;;;;;;;;5077359;28;20044;-72
2022/01/08 17:29:31;;;;;;;45.17;27.23;;;;;;;;;;5090374;28;20051;-73
2022/01/08 17:32:35;;;;;;;44.90;25.80;;;;;;;;;;5079877;28;20039;-72
2022/01/08 17:35:40;;;;;;;69.45;42.10;;;;;;;;;;5095954;28;20051;-72
2022/01/08 17:38:45;;;;;;;59.15;34.53;;;;;;;;;;5077413;28;20043;-72
2022/01/08 17:41:49;;;;;;;58.13;35.45;;;;;;;;;;5092610;28;20055;-73
2022/01/08 17:44:53;;;;;;;42.47;26.95;;;;;;;;;;5080994;28;20051;-73
2022/01/08 17:48:00;;;;;;;61.40;34.25;;;;;;;;;;5081391;28;20043;-73
2022/01/08 17:51:05;;;;;;;53.15;29.90;;;;;;;;;;5094227;28;20709;-73
2022/01/08 17:54:09;;;;;;;41.53;24.02;;;;;;;;;;5069888;28;20541;-73
2022/01/08 17:57:14;;;;;;;46.08;25.65;;;;;;;;;;5094087;28;20067;-73
2022/01/08 18:00:20;;;;;;;45.47;25.20;;;;;;;;;;5069925;28;20043;-72
2022/01/08 18:03:24;;;;;;;33.35;18.52;;;;;;;;;;5093686;28;20047;-72
2022/01/08 18:06:30;;;;;;;46.88;25.75;;;;;;;;;;5081186;28;20400;-73
2022/01/08 18:09:35;;;;;;;36.67;22.00;;;;;;;;;;5093827;28;20047;-73
2022/01/08 18:12:40;;;;;;;61.55;38.55;;;;;;;;;;5093459;28;20071;-73
2022/01/08 18:15:44;;;;;;;37.50;22.00;;;;;;;;;;5069031;28;20055;-73
2022/01/08 18:18:49;;;;;;;26.23;17.13;;;;;;;;;;5057839;28;20043;-73
2022/01/08 18:21:53;;;;;;;28.88;16.90;;;;;;;;;;5093434;28;20128;-72
2022/01/08 18:24:57;;;;;;;25.00;12.18;;;;;;;;;;5093323;28;20043;-73
2022/01/08 18:28:02;;;;;;;21.63;13.63;;;;;;;;;;5093384;28;20043;-73
2022/01/08 18:31:06;;;;;;;32.50;18.40;;;;;;;;;;5080553;28;20047;-72
2022/01/08 18:34:10;;;;;;;37.63;20.67;;;;;;;;;;5079950;28;20062;-73
2022/01/08 18:37:14;;;;;;;31.83;19.27;;;;;;;;;;5080687;28;20507;-73
2022/01/08 18:40:21;;;;;;;34.95;19.33;;;;;;;;;;5080667;28;20388;-72
2022/01/08 18:43:25;;;;;;;26.00;15.02;;;;;;;;;;5057229;28;20059;-73